sensor_id;sensor_type;location;lat;lon;timestamp;P1;durP1;ratioP1;P2;durP2;ratioP2
3939;SDS011;1984;48.312;9.244;2023-05-02T00:02:02;4.30;;;3.23;;
3939;SDS011;1984;48.312;9.244;2023-05-02T00:04:28;4.90;;;3.70;;
3939;SDS011;1984;48.312;9.244;2023-05-02T00:06:53;5.00;;;3.60;;
3939;SDS011;1984;48.312;9.244;2023-05-02T00:09:19;6.57;;;3.77;;
3939;SDS011;1984;48.312;9.244;2023-05-02T00:11:45;8.60;;;4.10;;
3939;SDS011;1984;48.312;9.244;2023-05-02T00:14:11;7.07;;;4.50;;
3939;SDS011;1984;48.312;9.244;2023-05-02T00:16:36;27.63;;;4.43;;
3939;SDS011;1984;48.312;9.244;2023-05-02T00:19:02;22.70;;;5.20;;
3939;SDS011;1984;48.312;9.244;2023-05-02T00:21:27;15.23;;;4.67;;
3939;SDS011;1984;48.312;9.244;2023-05-02T00:23:56;25.73;;;4.00;;
3939;SDS011;1984;48.312;9.244;2023-05-02T00:26:22;14.43;;;4.20;;
3939;SDS011;1984;48.312;9.244;2023-05-02T00:28:47;11.70;;;4.50;;
3939;SDS011;1984;48.312;9.244;2023-05-02T00:31:13;7.03;;;4.93;;
3939;SDS011;1984;48.312;9.244;2023-05-02T00:33:39;7.47;;;4.97;;
3939;SDS011;1984;48.312;9.244;2023-05-02T00:36:12;9.57;;;4.70;;
3939;SDS011;1984;48.312;9.244;2023-05-02T00:38:43;13.33;;;4.67;;
3939;SDS011;1984;48.312;9.244;2023-05-02T00:41:09;7.83;;;5.30;;
3939;SDS011;1984;48.312;9.244;2023-05-02T00:43:34;8.80;;;5.00;;
3939;SDS011;1984;48.312;9.244;2023-05-02T00:46:01;15.20;;;5.10;;
3939;SDS011;1984;48.312;9.244;2023-05-02T00:48:27;12.43;;;4.73;;
3939;SDS011;1984;48.312;9.244;2023-05-02T00:50:52;19.13;;;4.77;;
3939;SDS011;1984;48.312;9.244;2023-05-02T00:53:18;10.93;;;5.33;;
3939;SDS011;1984;48.312;9.244;2023-05-02T00:55:44;9.40;;;4.50;;
3939;SDS011;1984;48.312;9.244;2023-05-02T00:58:13;11.43;;;4.53;;
3939;SDS011;1984;48.312;9.244;2023-05-02T01:00:45;4.50;;;4.10;;
3939;SDS011;1984;48.312;9.244;2023-05-02T01:03:28;11.07;;;4.53;;
3939;SDS011;1984;48.312;9.244;2023-05-02T01:06:33;5.00;;;4.50;;
3939;SDS011;1984;48.312;9.244;2023-05-02T01:14:56;9.73;;;6.30;;
3939;SDS011;1984;48.312;9.244;2023-05-02T01:17:26;21.30;;;6.60;;
3939;SDS011;1984;48.312;9.244;2023-05-02T01:19:57;29.43;;;5.43;;
3939;SDS011;1984;48.312;9.244;2023-05-02T01:22:24;7.37;;;5.90;;
3939;SDS011;1984;48.312;9.244;2023-05-02T01:27:40;7.17;;;5.07;;
3939;SDS011;1984;48.312;9.244;2023-05-02T01:30:15;7.87;;;5.57;;
3939;SDS011;1984;48.312;9.244;2023-05-02T01:32:44;5.43;;;4.93;;
3939;SDS011;1984;48.312;9.244;2023-05-02T01:35:12;9.43;;;5.40;;
3939;SDS011;1984;48.312;9.244;2023-05-02T01:37:39;5.57;;;4.97;;
3939;SDS011;1984;48.312;9.244;2023-05-02T01:40:07;5.23;;;4.30;;
3939;SDS011;1984;48.312;9.244;2023-05-02T01:42:35;6.03;;;4.53;;
3939;SDS011;1984;48.312;9.244;2023-05-02T01:45:02;28.63;;;4.43;;
3939;SDS011;1984;48.312;9.244;2023-05-02T01:47:30;5.50;;;4.40;;
3939;SDS011;1984;48.312;9.244;2023-05-02T01:49:59;15.37;;;4.20;;
3939;SDS011;1984;48.312;9.244;2023-05-02T01:52:27;8.37;;;3.87;;
3939;SDS011;1984;48.312;9.244;2023-05-02T01:54:54;10.77;;;4.17;;
3939;SDS011;1984;48.312;9.244;2023-05-02T01:57:23;5.07;;;4.20;;
3939;SDS011;1984;48.312;9.244;2023-05-02T01:59:49;10.40;;;5.00;;
3939;SDS011;1984;48.312;9.244;2023-05-02T02:02:17;46.13;;;7.30;;
3939;SDS011;1984;48.312;9.244;2023-05-02T02:04:43;9.67;;;3.93;;
3939;SDS011;1984;48.312;9.244;2023-05-02T02:07:12;22.53;;;4.00;;
3939;SDS011;1984;48.312;9.244;2023-05-02T02:09:37;14.10;;;3.73;;
3939;SDS011;1984;48.312;9.244;2023-05-02T02:12:11;12.20;;;4.50;;
3939;SDS011;1984;48.312;9.244;2023-05-02T02:14:42;10.13;;;4.40;;
3939;SDS011;1984;48.312;9.244;2023-05-02T02:17:14;6.10;;;4.43;;
3939;SDS011;1984;48.312;9.244;2023-05-02T02:19:47;7.43;;;4.40;;
3939;SDS011;1984;48.312;9.244;2023-05-02T02:22:17;24.87;;;3.57;;
3939;SDS011;1984;48.312;9.244;2023-05-02T02:24:45;15.57;;;3.70;;
3939;SDS011;1984;48.312;9.244;2023-05-02T02:27:12;25.73;;;3.43;;
3939;SDS011;1984;48.312;9.244;2023-05-02T02:29:38;7.07;;;3.70;;
3939;SDS011;1984;48.312;9.244;2023-05-02T02:32:03;15.80;;;4.53;;
3939;SDS011;1984;48.312;9.244;2023-05-02T02:34:29;106.77;;;6.50;;
3939;SDS011;1984;48.312;9.244;2023-05-02T02:37:08;48.83;;;4.70;;
3939;SDS011;1984;48.312;9.244;2023-05-02T02:42:15;96.77;;;7.50;;
3939;SDS011;1984;48.312;9.244;2023-05-02T02:45:08;22.43;;;4.20;;
3939;SDS011;1984;48.312;9.244;2023-05-02T02:47:48;36.87;;;3.87;;
3939;SDS011;1984;48.312;9.244;2023-05-02T02:50:19;69.57;;;5.07;;
3939;SDS011;1984;48.312;9.244;2023-05-02T02:52:51;124.67;;;6.00;;
3939;SDS011;1984;48.312;9.244;2023-05-02T02:55:25;108.60;;;5.87;;
3939;SDS011;1984;48.312;9.244;2023-05-02T02:58:06;139.90;;;7.60;;
3939;SDS011;1984;48.312;9.244;2023-05-02T03:00:41;8.00;;;4.20;;
3939;SDS011;1984;48.312;9.244;2023-05-02T03:03:08;72.43;;;6.80;;
3939;SDS011;1984;48.312;9.244;2023-05-02T03:05:35;73.33;;;5.00;;
3939;SDS011;1984;48.312;9.244;2023-05-02T03:08:01;148.57;;;7.30;;
3939;SDS011;1984;48.312;9.244;2023-05-02T03:10:27;266.00;;;16.07;;
3939;SDS011;1984;48.312;9.244;2023-05-02T03:12:53;86.27;;;13.57;;
3939;SDS011;1984;48.312;9.244;2023-05-02T03:18:16;99.77;;;20.33;;
3939;SDS011;1984;48.312;9.244;2023-05-02T03:20:42;181.43;;;28.03;;
3939;SDS011;1984;48.312;9.244;2023-05-02T03:23:07;125.67;;;15.57;;
3939;SDS011;1984;48.312;9.244;2023-05-02T03:25:33;129.07;;;13.37;;
3939;SDS011;1984;48.312;9.244;2023-05-02T03:27:58;56.63;;;8.67;;
3939;SDS011;1984;48.312;9.244;2023-05-02T03:30:24;38.83;;;9.73;;
3939;SDS011;1984;48.312;9.244;2023-05-02T03:32:50;19.33;;;9.07;;
3939;SDS011;1984;48.312;9.244;2023-05-02T03:35:16;22.20;;;7.17;;
3939;SDS011;1984;48.312;9.244;2023-05-02T03:37:42;27.23;;;7.27;;
3939;SDS011;1984;48.312;9.244;2023-05-02T03:40:08;26.07;;;9.07;;
3939;SDS011;1984;48.312;9.244;2023-05-02T03:42:33;30.47;;;9.53;;
3939;SDS011;1984;48.312;9.244;2023-05-02T03:45:05;17.33;;;8.20;;
3939;SDS011;1984;48.312;9.244;2023-05-02T03:47:31;29.03;;;10.30;;
3939;SDS011;1984;48.312;9.244;2023-05-02T03:49:57;51.30;;;8.07;;
3939;SDS011;1984;48.312;9.244;2023-05-02T03:52:23;22.37;;;5.93;;
3939;SDS011;1984;48.312;9.244;2023-05-02T03:54:49;47.63;;;5.23;;
3939;SDS011;1984;48.312;9.244;2023-05-02T03:57:15;17.60;;;5.47;;
3939;SDS011;1984;48.312;9.244;2023-05-02T03:59:41;15.93;;;4.70;;
3939;SDS011;1984;48.312;9.244;2023-05-02T04:02:09;3.97;;;3.50;;
3939;SDS011;1984;48.312;9.244;2023-05-02T04:04:35;3.80;;;3.40;;
3939;SDS011;1984;48.312;9.244;2023-05-02T04:07:01;4.50;;;3.50;;
3939;SDS011;1984;48.312;9.244;2023-05-02T04:09:27;6.53;;;3.70;;
3939;SDS011;1984;48.312;9.244;2023-05-02T04:11:52;3.60;;;3.10;;
3939;SDS011;1984;48.312;9.244;2023-05-02T04:14:18;13.97;;;4.20;;
3939;SDS011;1984;48.312;9.244;2023-05-02T04:16:47;12.03;;;4.90;;
3939;SDS011;1984;48.312;9.244;2023-05-02T04:19:13;7.27;;;4.43;;
3939;SDS011;1984;48.312;9.244;2023-05-02T04:21:39;17.13;;;4.83;;
3939;SDS011;1984;48.312;9.244;2023-05-02T04:24:05;100.67;;;8.87;;
3939;SDS011;1984;48.312;9.244;2023-05-02T04:26:32;58.93;;;7.43;;
3939;SDS011;1984;48.312;9.244;2023-05-02T04:28:57;51.10;;;6.50;;
3939;SDS011;1984;48.312;9.244;2023-05-02T04:31:23;24.07;;;5.33;;
3939;SDS011;1984;48.312;9.244;2023-05-02T04:33:48;11.03;;;4.53;;
3939;SDS011;1984;48.312;9.244;2023-05-02T04:36:14;19.30;;;4.20;;
3939;SDS011;1984;48.312;9.244;2023-05-02T04:38:40;7.47;;;4.77;;
3939;SDS011;1984;48.312;9.244;2023-05-02T04:41:06;5.53;;;4.67;;
3939;SDS011;1984;48.312;9.244;2023-05-02T04:43:31;8.17;;;4.70;;
3939;SDS011;1984;48.312;9.244;2023-05-02T04:45:57;5.23;;;4.20;;
3939;SDS011;1984;48.312;9.244;2023-05-02T04:48:22;4.07;;;3.67;;
3939;SDS011;1984;48.312;9.244;2023-05-02T04:50:49;4.53;;;3.67;;
3939;SDS011;1984;48.312;9.244;2023-05-02T04:53:17;4.10;;;3.70;;
3939;SDS011;1984;48.312;9.244;2023-05-02T04:55:44;5.03;;;4.07;;
3939;SDS011;1984;48.312;9.244;2023-05-02T04:58:10;4.13;;;3.73;;
3939;SDS011;1984;48.312;9.244;2023-05-02T05:00:36;5.00;;;4.40;;
3939;SDS011;1984;48.312;9.244;2023-05-02T05:03:02;6.60;;;3.70;;
3939;SDS011;1984;48.312;9.244;2023-05-02T05:05:28;4.50;;;4.10;;
3939;SDS011;1984;48.312;9.244;2023-05-02T05:07:53;3.83;;;3.53;;
3939;SDS011;1984;48.312;9.244;2023-05-02T05:10:19;4.30;;;3.80;;
3939;SDS011;1984;48.312;9.244;2023-05-02T05:12:44;4.97;;;4.10;;
3939;SDS011;1984;48.312;9.244;2023-05-02T05:15:10;6.63;;;4.20;;
3939;SDS011;1984;48.312;9.244;2023-05-02T05:17:36;5.03;;;4.47;;
3939;SDS011;1984;48.312;9.244;2023-05-02T05:20:01;7.27;;;5.53;;
3939;SDS011;1984;48.312;9.244;2023-05-02T05:22:27;7.33;;;4.60;;
3939;SDS011;1984;48.312;9.244;2023-05-02T05:24:53;6.60;;;5.20;;
3939;SDS011;1984;48.312;9.244;2023-05-02T05:27:19;8.03;;;6.23;;
3939;SDS011;1984;48.312;9.244;2023-05-02T05:29:45;5.00;;;4.50;;
3939;SDS011;1984;48.312;9.244;2023-05-02T05:32:11;7.10;;;5.10;;
3939;SDS011;1984;48.312;9.244;2023-05-02T05:34:36;6.70;;;5.50;;
3939;SDS011;1984;48.312;9.244;2023-05-02T05:37:02;5.83;;;5.30;;
3939;SDS011;1984;48.312;9.244;2023-05-02T05:39:27;9.17;;;5.50;;
3939;SDS011;1984;48.312;9.244;2023-05-02T05:41:53;9.80;;;7.20;;
3939;SDS011;1984;48.312;9.244;2023-05-02T05:44:18;7.70;;;6.33;;
3939;SDS011;1984;48.312;9.244;2023-05-02T05:46:46;8.03;;;6.13;;
3939;SDS011;1984;48.312;9.244;2023-05-02T05:49:11;7.20;;;6.50;;
3939;SDS011;1984;48.312;9.244;2023-05-02T05:51:39;9.37;;;5.90;;
3939;SDS011;1984;48.312;9.244;2023-05-02T05:54:05;6.53;;;5.30;;
3939;SDS011;1984;48.312;9.244;2023-05-02T05:56:31;6.80;;;5.27;;
3939;SDS011;1984;48.312;9.244;2023-05-02T05:58:57;7.70;;;6.13;;
3939;SDS011;1984;48.312;9.244;2023-05-02T06:01:22;10.70;;;6.60;;
3939;SDS011;1984;48.312;9.244;2023-05-02T06:03:48;12.87;;;8.70;;
3939;SDS011;1984;48.312;9.244;2023-05-02T06:06:13;15.13;;;9.80;;
3939;SDS011;1984;48.312;9.244;2023-05-02T06:08:39;13.33;;;9.40;;
3939;SDS011;1984;48.312;9.244;2023-05-02T06:11:14;11.67;;;9.03;;
3939;SDS011;1984;48.312;9.244;2023-05-02T06:13:39;15.30;;;10.10;;
3939;SDS011;1984;48.312;9.244;2023-05-02T06:16:05;15.67;;;10.80;;
3939;SDS011;1984;48.312;9.244;2023-05-02T06:18:30;14.57;;;11.10;;
3939;SDS011;1984;48.312;9.244;2023-05-02T06:20:56;15.27;;;10.80;;
3939;SDS011;1984;48.312;9.244;2023-05-02T06:23:22;14.43;;;9.90;;
3939;SDS011;1984;48.312;9.244;2023-05-02T06:25:47;14.87;;;8.80;;
3939;SDS011;1984;48.312;9.244;2023-05-02T06:28:13;12.83;;;8.90;;
3939;SDS011;1984;48.312;9.244;2023-05-02T06:30:38;10.83;;;7.63;;
3939;SDS011;1984;48.312;9.244;2023-05-02T06:33:05;10.60;;;8.00;;
3939;SDS011;1984;48.312;9.244;2023-05-02T06:35:30;9.87;;;7.50;;
3939;SDS011;1984;48.312;9.244;2023-05-02T06:37:56;11.30;;;8.30;;
3939;SDS011;1984;48.312;9.244;2023-05-02T06:40:21;11.80;;;8.50;;
3939;SDS011;1984;48.312;9.244;2023-05-02T06:42:47;11.10;;;8.50;;
3939;SDS011;1984;48.312;9.244;2023-05-02T06:45:12;8.57;;;7.20;;
3939;SDS011;1984;48.312;9.244;2023-05-02T06:47:38;9.17;;;7.03;;
3939;SDS011;1984;48.312;9.244;2023-05-02T06:50:03;11.80;;;6.87;;
3939;SDS011;1984;48.312;9.244;2023-05-02T06:52:29;7.57;;;6.50;;
3939;SDS011;1984;48.312;9.244;2023-05-02T06:54:55;8.13;;;6.97;;
3939;SDS011;1984;48.312;9.244;2023-05-02T06:57:20;9.30;;;7.27;;
3939;SDS011;1984;48.312;9.244;2023-05-02T06:59:46;11.20;;;7.70;;
3939;SDS011;1984;48.312;9.244;2023-05-02T07:02:12;9.90;;;7.27;;
3939;SDS011;1984;48.312;9.244;2023-05-02T07:04:37;9.20;;;6.97;;
3939;SDS011;1984;48.312;9.244;2023-05-02T07:07:02;15.30;;;7.47;;
3939;SDS011;1984;48.312;9.244;2023-05-02T07:09:28;9.30;;;7.20;;
3939;SDS011;1984;48.312;9.244;2023-05-02T07:11:54;11.03;;;8.20;;
3939;SDS011;1984;48.312;9.244;2023-05-02T07:14:19;8.10;;;7.00;;
3939;SDS011;1984;48.312;9.244;2023-05-02T07:16:45;8.70;;;7.60;;
3939;SDS011;1984;48.312;9.244;2023-05-02T07:19:11;15.33;;;7.93;;
3939;SDS011;1984;48.312;9.244;2023-05-02T07:21:36;13.10;;;9.00;;
3939;SDS011;1984;48.312;9.244;2023-05-02T07:24:02;10.47;;;8.67;;
3939;SDS011;1984;48.312;9.244;2023-05-02T07:26:27;10.93;;;8.17;;
3939;SDS011;1984;48.312;9.244;2023-05-02T07:28:53;11.00;;;7.97;;
3939;SDS011;1984;48.312;9.244;2023-05-02T07:31:18;10.40;;;8.00;;
3939;SDS011;1984;48.312;9.244;2023-05-02T07:33:44;10.10;;;8.30;;
3939;SDS011;1984;48.312;9.244;2023-05-02T07:36:10;9.73;;;8.80;;
3939;SDS011;1984;48.312;9.244;2023-05-02T07:38:35;11.20;;;9.20;;
3939;SDS011;1984;48.312;9.244;2023-05-02T07:41:01;16.43;;;9.27;;
3939;SDS011;1984;48.312;9.244;2023-05-02T07:43:26;15.33;;;10.77;;
3939;SDS011;1984;48.312;9.244;2023-05-02T07:45:52;16.43;;;12.70;;
3939;SDS011;1984;48.312;9.244;2023-05-02T07:48:17;14.10;;;10.90;;
3939;SDS011;1984;48.312;9.244;2023-05-02T07:50:44;16.60;;;11.50;;
3939;SDS011;1984;48.312;9.244;2023-05-02T07:53:09;16.93;;;11.40;;
3939;SDS011;1984;48.312;9.244;2023-05-02T07:55:35;15.63;;;11.50;;
3939;SDS011;1984;48.312;9.244;2023-05-02T07:58:01;14.37;;;11.30;;
3939;SDS011;1984;48.312;9.244;2023-05-02T08:00:27;13.03;;;10.97;;
3939;SDS011;1984;48.312;9.244;2023-05-02T08:02:54;16.00;;;10.67;;
3939;SDS011;1984;48.312;9.244;2023-05-02T08:05:19;18.07;;;12.40;;
3939;SDS011;1984;48.312;9.244;2023-05-02T08:07:45;17.90;;;13.20;;
3939;SDS011;1984;48.312;9.244;2023-05-02T08:10:10;18.53;;;11.80;;
3939;SDS011;1984;48.312;9.244;2023-05-02T08:12:36;18.43;;;13.70;;
3939;SDS011;1984;48.312;9.244;2023-05-02T08:15:06;28.97;;;15.70;;
3939;SDS011;1984;48.312;9.244;2023-05-02T08:17:33;22.23;;;15.20;;
3939;SDS011;1984;48.312;9.244;2023-05-02T08:19:58;21.10;;;15.13;;
3939;SDS011;1984;48.312;9.244;2023-05-02T08:22:24;23.83;;;15.93;;
3939;SDS011;1984;48.312;9.244;2023-05-02T08:24:50;24.57;;;15.23;;
3939;SDS011;1984;48.312;9.244;2023-05-02T08:27:15;25.03;;;16.57;;
3939;SDS011;1984;48.312;9.244;2023-05-02T08:29:41;21.43;;;15.90;;
3939;SDS011;1984;48.312;9.244;2023-05-02T08:32:06;26.70;;;16.67;;
3939;SDS011;1984;48.312;9.244;2023-05-02T08:34:32;28.93;;;16.50;;
3939;SDS011;1984;48.312;9.244;2023-05-02T08:36:57;25.03;;;17.70;;
3939;SDS011;1984;48.312;9.244;2023-05-02T08:39:23;25.70;;;17.63;;
3939;SDS011;1984;48.312;9.244;2023-05-02T08:41:49;23.57;;;16.80;;
3939;SDS011;1984;48.312;9.244;2023-05-02T08:44:14;21.37;;;15.33;;
3939;SDS011;1984;48.312;9.244;2023-05-02T08:46:40;24.50;;;16.93;;
3939;SDS011;1984;48.312;9.244;2023-05-02T08:49:09;23.70;;;15.67;;
3939;SDS011;1984;48.312;9.244;2023-05-02T08:51:35;28.90;;;16.63;;
3939;SDS011;1984;48.312;9.244;2023-05-02T08:54:02;27.33;;;16.40;;
3939;SDS011;1984;48.312;9.244;2023-05-02T08:56:28;22.30;;;15.70;;
3939;SDS011;1984;48.312;9.244;2023-05-02T08:58:54;22.50;;;16.07;;
3939;SDS011;1984;48.312;9.244;2023-05-02T09:01:21;24.03;;;16.53;;
3939;SDS011;1984;48.312;9.244;2023-05-02T09:03:47;20.03;;;16.10;;
3939;SDS011;1984;48.312;9.244;2023-05-02T09:06:20;25.27;;;17.30;;
3939;SDS011;1984;48.312;9.244;2023-05-02T09:08:47;24.90;;;15.50;;
3939;SDS011;1984;48.312;9.244;2023-05-02T09:11:14;21.50;;;14.70;;
3939;SDS011;1984;48.312;9.244;2023-05-02T09:23:44;27.97;;;15.40;;
3939;SDS011;1984;48.312;9.244;2023-05-02T09:26:18;18.40;;;13.87;;
3939;SDS011;1984;48.312;9.244;2023-05-02T09:28:46;20.93;;;14.13;;
3939;SDS011;1984;48.312;9.244;2023-05-02T09:31:13;13.23;;;11.80;;
3939;SDS011;1984;48.312;9.244;2023-05-02T09:33:41;19.70;;;14.10;;
3939;SDS011;1984;48.312;9.244;2023-05-02T09:36:08;21.20;;;13.60;;
3939;SDS011;1984;48.312;9.244;2023-05-02T09:38:36;18.70;;;12.63;;
3939;SDS011;1984;48.312;9.244;2023-05-02T09:41:02;15.50;;;12.30;;
3939;SDS011;1984;48.312;9.244;2023-05-02T09:43:29;17.30;;;13.27;;
3939;SDS011;1984;48.312;9.244;2023-05-02T09:46:00;15.97;;;11.83;;
3939;SDS011;1984;48.312;9.244;2023-05-02T09:48:26;19.27;;;13.10;;
3939;SDS011;1984;48.312;9.244;2023-05-02T09:50:52;18.13;;;13.07;;
3939;SDS011;1984;48.312;9.244;2023-05-02T09:53:18;19.17;;;12.93;;
3939;SDS011;1984;48.312;9.244;2023-05-02T09:55:44;17.40;;;12.77;;
3939;SDS011;1984;48.312;9.244;2023-05-02T09:58:22;15.20;;;11.70;;
3939;SDS011;1984;48.312;9.244;2023-05-02T10:00:48;16.73;;;12.53;;
3939;SDS011;1984;48.312;9.244;2023-05-02T10:03:16;15.73;;;11.80;;
3939;SDS011;1984;48.312;9.244;2023-05-02T10:05:42;16.40;;;11.07;;
3939;SDS011;1984;48.312;9.244;2023-05-02T10:08:10;15.53;;;10.57;;
3939;SDS011;1984;48.312;9.244;2023-05-02T10:10:37;15.20;;;11.27;;
3939;SDS011;1984;48.312;9.244;2023-05-02T10:13:04;13.00;;;10.77;;
3939;SDS011;1984;48.312;9.244;2023-05-02T10:15:31;12.67;;;10.50;;
3939;SDS011;1984;48.312;9.244;2023-05-02T10:18:00;13.80;;;10.40;;
3939;SDS011;1984;48.312;9.244;2023-05-02T10:20:38;15.03;;;10.77;;
3939;SDS011;1984;48.312;9.244;2023-05-02T10:23:19;12.00;;;10.00;;
3939;SDS011;1984;48.312;9.244;2023-05-02T10:25:46;11.13;;;9.60;;
3939;SDS011;1984;48.312;9.244;2023-05-02T10:28:11;11.50;;;9.07;;
3939;SDS011;1984;48.312;9.244;2023-05-02T10:30:38;12.60;;;9.90;;
3939;SDS011;1984;48.312;9.244;2023-05-02T10:33:05;11.47;;;9.53;;
3939;SDS011;1984;48.312;9.244;2023-05-02T10:35:31;13.40;;;9.33;;
3939;SDS011;1984;48.312;9.244;2023-05-02T10:37:57;13.53;;;9.63;;
3939;SDS011;1984;48.312;9.244;2023-05-02T10:40:23;13.07;;;9.87;;
3939;SDS011;1984;48.312;9.244;2023-05-02T10:42:50;12.10;;;9.00;;
3939;SDS011;1984;48.312;9.244;2023-05-02T10:45:30;12.53;;;9.50;;
3939;SDS011;1984;48.312;9.244;2023-05-02T10:48:19;11.87;;;9.77;;
3939;SDS011;1984;48.312;9.244;2023-05-02T10:50:56;12.03;;;10.30;;
3939;SDS011;1984;48.312;9.244;2023-05-02T10:53:26;10.43;;;9.33;;
3939;SDS011;1984;48.312;9.244;2023-05-02T10:56:15;11.87;;;9.90;;
3939;SDS011;1984;48.312;9.244;2023-05-02T10:58:49;11.10;;;9.07;;
3939;SDS011;1984;48.312;9.244;2023-05-02T11:04:06;9.37;;;8.30;;
3939;SDS011;1984;48.312;9.244;2023-05-02T11:06:34;9.80;;;7.87;;
3939;SDS011;1984;48.312;9.244;2023-05-02T11:11:44;13.03;;;8.80;;
3939;SDS011;1984;48.312;9.244;2023-05-02T11:14:19;8.87;;;7.57;;
3939;SDS011;1984;48.312;9.244;2023-05-02T11:24:43;9.57;;;8.57;;
3939;SDS011;1984;48.312;9.244;2023-05-02T11:30:02;11.33;;;8.03;;
3939;SDS011;1984;48.312;9.244;2023-05-02T11:35:18;11.70;;;9.30;;
3939;SDS011;1984;48.312;9.244;2023-05-02T11:37:52;8.57;;;7.67;;
3939;SDS011;1984;48.312;9.244;2023-05-02T11:40:18;11.97;;;7.80;;
3939;SDS011;1984;48.312;9.244;2023-05-02T11:42:44;9.43;;;8.23;;
3939;SDS011;1984;48.312;9.244;2023-05-02T11:45:10;10.30;;;8.77;;
3939;SDS011;1984;48.312;9.244;2023-05-02T11:47:35;11.13;;;9.17;;
3939;SDS011;1984;48.312;9.244;2023-05-02T11:50:04;12.03;;;9.50;;
3939;SDS011;1984;48.312;9.244;2023-05-02T11:52:35;10.10;;;8.40;;
3939;SDS011;1984;48.312;9.244;2023-05-02T11:55:02;12.77;;;8.33;;
3939;SDS011;1984;48.312;9.244;2023-05-02T11:57:32;9.23;;;8.23;;
3939;SDS011;1984;48.312;9.244;2023-05-02T11:59:57;9.47;;;7.57;;
3939;SDS011;1984;48.312;9.244;2023-05-02T12:02:36;10.87;;;8.83;;
3939;SDS011;1984;48.312;9.244;2023-05-02T12:05:12;10.90;;;8.10;;
3939;SDS011;1984;48.312;9.244;2023-05-02T12:10:11;11.43;;;8.20;;
3939;SDS011;1984;48.312;9.244;2023-05-02T12:12:38;15.47;;;9.50;;
3939;SDS011;1984;48.312;9.244;2023-05-02T12:17:32;9.20;;;8.10;;
3939;SDS011;1984;48.312;9.244;2023-05-02T12:20:02;10.93;;;8.80;;
3939;SDS011;1984;48.312;9.244;2023-05-02T12:22:29;13.77;;;8.27;;
3939;SDS011;1984;48.312;9.244;2023-05-02T12:24:54;12.43;;;9.07;;
3939;SDS011;1984;48.312;9.244;2023-05-02T12:27:20;11.50;;;9.17;;
3939;SDS011;1984;48.312;9.244;2023-05-02T12:29:46;16.30;;;9.80;;
3939;SDS011;1984;48.312;9.244;2023-05-02T12:32:13;9.57;;;8.47;;
3939;SDS011;1984;48.312;9.244;2023-05-02T12:34:40;16.33;;;7.70;;
3939;SDS011;1984;48.312;9.244;2023-05-02T12:37:06;9.07;;;8.07;;
3939;SDS011;1984;48.312;9.244;2023-05-02T12:39:40;8.90;;;7.83;;
3939;SDS011;1984;48.312;9.244;2023-05-02T12:42:10;9.97;;;8.57;;
3939;SDS011;1984;48.312;9.244;2023-05-02T12:44:43;11.30;;;9.03;;
3939;SDS011;1984;48.312;9.244;2023-05-02T12:47:10;12.00;;;8.63;;
3939;SDS011;1984;48.312;9.244;2023-05-02T12:49:47;12.70;;;8.80;;
3939;SDS011;1984;48.312;9.244;2023-05-02T12:52:13;14.33;;;9.53;;
3939;SDS011;1984;48.312;9.244;2023-05-02T12:54:39;15.63;;;9.03;;
3939;SDS011;1984;48.312;9.244;2023-05-02T12:57:04;16.20;;;8.63;;
3939;SDS011;1984;48.312;9.244;2023-05-02T12:59:30;9.83;;;8.40;;
3939;SDS011;1984;48.312;9.244;2023-05-02T13:01:57;10.70;;;8.60;;
3939;SDS011;1984;48.312;9.244;2023-05-02T13:04:33;11.00;;;8.70;;
3939;SDS011;1984;48.312;9.244;2023-05-02T13:07:03;10.50;;;8.20;;
3939;SDS011;1984;48.312;9.244;2023-05-02T13:09:29;8.40;;;7.50;;
3939;SDS011;1984;48.312;9.244;2023-05-02T13:11:54;9.23;;;7.07;;
3939;SDS011;1984;48.312;9.244;2023-05-02T13:14:20;11.70;;;8.37;;
3939;SDS011;1984;48.312;9.244;2023-05-02T13:16:47;9.47;;;6.97;;
3939;SDS011;1984;48.312;9.244;2023-05-02T13:19:13;10.73;;;8.40;;
3939;SDS011;1984;48.312;9.244;2023-05-02T13:21:39;9.50;;;7.33;;
3939;SDS011;1984;48.312;9.244;2023-05-02T13:24:04;10.97;;;8.27;;
3939;SDS011;1984;48.312;9.244;2023-05-02T13:26:30;10.63;;;6.33;;
3939;SDS011;1984;48.312;9.244;2023-05-02T13:29:01;10.27;;;7.47;;
3939;SDS011;1984;48.312;9.244;2023-05-02T13:31:26;12.40;;;6.57;;
3939;SDS011;1984;48.312;9.244;2023-05-02T13:33:52;7.00;;;6.30;;
3939;SDS011;1984;48.312;9.244;2023-05-02T13:36:17;10.80;;;6.80;;
3939;SDS011;1984;48.312;9.244;2023-05-02T13:38:43;7.30;;;5.97;;
3939;SDS011;1984;48.312;9.244;2023-05-02T13:41:09;8.53;;;7.00;;
3939;SDS011;1984;48.312;9.244;2023-05-02T13:43:34;7.23;;;5.80;;
3939;SDS011;1984;48.312;9.244;2023-05-02T13:46:00;6.97;;;6.20;;
3939;SDS011;1984;48.312;9.244;2023-05-02T13:48:25;18.50;;;6.07;;
3939;SDS011;1984;48.312;9.244;2023-05-02T13:50:51;11.77;;;8.23;;
3939;SDS011;1984;48.312;9.244;2023-05-02T13:53:16;8.40;;;7.07;;
3939;SDS011;1984;48.312;9.244;2023-05-02T13:55:42;7.60;;;5.97;;
3939;SDS011;1984;48.312;9.244;2023-05-02T13:58:07;8.40;;;6.77;;
3939;SDS011;1984;48.312;9.244;2023-05-02T14:00:33;16.47;;;6.40;;
3939;SDS011;1984;48.312;9.244;2023-05-02T14:02:58;10.30;;;6.77;;
3939;SDS011;1984;48.312;9.244;2023-05-02T14:05:24;7.30;;;6.10;;
3939;SDS011;1984;48.312;9.244;2023-05-02T14:07:50;6.70;;;5.57;;
3939;SDS011;1984;48.312;9.244;2023-05-02T14:10:15;7.20;;;6.33;;
3939;SDS011;1984;48.312;9.244;2023-05-02T14:12:41;9.90;;;5.87;;
3939;SDS011;1984;48.312;9.244;2023-05-02T14:15:07;8.13;;;6.10;;
3939;SDS011;1984;48.312;9.244;2023-05-02T14:17:32;12.40;;;6.53;;
3939;SDS011;1984;48.312;9.244;2023-05-02T14:19:58;8.70;;;6.60;;
3939;SDS011;1984;48.312;9.244;2023-05-02T14:22:23;9.17;;;7.60;;
3939;SDS011;1984;48.312;9.244;2023-05-02T14:24:49;7.80;;;7.00;;
3939;SDS011;1984;48.312;9.244;2023-05-02T14:27:15;8.77;;;7.50;;
3939;SDS011;1984;48.312;9.244;2023-05-02T14:29:44;12.70;;;8.40;;
3939;SDS011;1984;48.312;9.244;2023-05-02T14:32:10;17.33;;;8.70;;
3939;SDS011;1984;48.312;9.244;2023-05-02T14:34:35;11.50;;;7.87;;
3939;SDS011;1984;48.312;9.244;2023-05-02T14:37:01;10.70;;;8.00;;
3939;SDS011;1984;48.312;9.244;2023-05-02T14:39:26;15.37;;;8.27;;
3939;SDS011;1984;48.312;9.244;2023-05-02T14:41:52;10.90;;;7.47;;
3939;SDS011;1984;48.312;9.244;2023-05-02T14:44:17;11.97;;;8.33;;
3939;SDS011;1984;48.312;9.244;2023-05-02T14:46:43;12.30;;;9.23;;
3939;SDS011;1984;48.312;9.244;2023-05-02T14:49:08;15.13;;;9.50;;
3939;SDS011;1984;48.312;9.244;2023-05-02T14:51:37;13.93;;;9.40;;
3939;SDS011;1984;48.312;9.244;2023-05-02T14:54:04;15.30;;;10.70;;
3939;SDS011;1984;48.312;9.244;2023-05-02T14:56:31;13.33;;;10.00;;
3939;SDS011;1984;48.312;9.244;2023-05-02T14:58:57;15.20;;;10.50;;
3939;SDS011;1984;48.312;9.244;2023-05-02T15:01:23;15.00;;;10.73;;
3939;SDS011;1984;48.312;9.244;2023-05-02T15:03:48;15.07;;;11.00;;
3939;SDS011;1984;48.312;9.244;2023-05-02T15:06:16;13.47;;;10.63;;
3939;SDS011;1984;48.312;9.244;2023-05-02T15:08:41;14.40;;;10.90;;
3939;SDS011;1984;48.312;9.244;2023-05-02T15:11:08;18.33;;;12.33;;
3939;SDS011;1984;48.312;9.244;2023-05-02T15:13:34;16.80;;;11.00;;
3939;SDS011;1984;48.312;9.244;2023-05-02T15:16:01;13.53;;;10.30;;
3939;SDS011;1984;48.312;9.244;2023-05-02T15:18:26;17.60;;;11.43;;
3939;SDS011;1984;48.312;9.244;2023-05-02T15:20:52;18.70;;;11.90;;
3939;SDS011;1984;48.312;9.244;2023-05-02T15:23:18;16.80;;;12.33;;
3939;SDS011;1984;48.312;9.244;2023-05-02T15:25:43;19.87;;;13.20;;
3939;SDS011;1984;48.312;9.244;2023-05-02T15:28:09;20.47;;;14.03;;
3939;SDS011;1984;48.312;9.244;2023-05-02T15:30:34;18.17;;;13.40;;
3939;SDS011;1984;48.312;9.244;2023-05-02T15:33:00;17.70;;;12.70;;
3939;SDS011;1984;48.312;9.244;2023-05-02T15:35:26;18.43;;;12.47;;
3939;SDS011;1984;48.312;9.244;2023-05-02T15:37:52;18.40;;;13.10;;
3939;SDS011;1984;48.312;9.244;2023-05-02T15:40:17;21.83;;;13.97;;
3939;SDS011;1984;48.312;9.244;2023-05-02T15:42:43;18.50;;;12.93;;
3939;SDS011;1984;48.312;9.244;2023-05-02T15:45:12;20.83;;;14.40;;
3939;SDS011;1984;48.312;9.244;2023-05-02T15:47:38;23.77;;;14.07;;
3939;SDS011;1984;48.312;9.244;2023-05-02T15:50:04;21.50;;;13.43;;
3939;SDS011;1984;48.312;9.244;2023-05-02T15:52:30;23.80;;;15.70;;